• Join FlightAware (Why Join?)
  • Login
  • US Flag 
12:19PM EDT


 

Airport Tracker/Info


-or-


 

Live Flight TrackerFlight Track Log ✈ KAP165 ✈ 23-Jul-2013 ✈ KALB - KOGS

Flight Track Log - Related Links

Times and Time Zones

All times are in EDT time to prevent confusion due to time zone crossing. See the KAP165 flight status page for this flight to view local times or setup timezone preferences in your user account.

Time Position Orientation Groundspeed Altitude Reporting Facility
EDT Latitude Longitude Course Direction KTS MPH feet Rate Location/Type
07:27PM 42.9752 -73.9901 329° Northwest  Level Estimated
07:28PM 43.0075 -74.0171 329° Northwest  Level Estimated
07:29PM 43.0397 -74.0441 329° Northwest  Level Estimated
07:30PM 43.0720 -74.0711 329° Northwest  Level Estimated
07:30PM 43.0644 -73.8836 328° Northwest 115 132 5,300  Level Boston Center
07:31PM 43.1043 -74.0982 329° Northwest  Level Estimated
07:31PM 43.0978 -73.8931 348° North 115 132 5,700  Level Boston Center
07:32PM 43.1365 -74.1253 328° Northwest  Level Estimated
07:32PM 43.1289 -73.9025 348° North 115 132 6,200  Level Boston Center
07:33PM 43.1687 -74.1524 328° Northwest  Level Estimated
07:33PM 43.1642 -73.9089 352° North 123 142 6,500  Level Boston Center
07:34PM 43.2010 -74.1796 328° Northwest  Level Estimated
07:34PM 43.2039 -73.9069 North 140 161 7,100  Level Boston Center
07:35PM 43.2332 -74.2068 328° Northwest  Level Estimated
07:35PM 43.2414 -73.9078 359° North 135 155 7,100  Level Boston Center
07:36PM 43.2808 -73.9175 350° North 140 161 7,000  Descending Boston Center
07:37PM 43.3181 -73.9297 347° North 140 161 7,200 360 Climbing Boston Center
07:38PM 43.3533 -73.9392 349° North 127 146 7,800 420 Climbing Boston Center
07:39PM 43.3822 -73.9597 333° Northwest 119 137 8,100 420 Climbing Boston Center
07:40PM 43.4111 -73.9778 336° Northwest 119 137 8,700 480 Climbing Boston Center
07:41PM 43.4381 -74.0069 322° Northwest 113 130 9,100 120 Climbing Boston Center
07:42PM 43.4603 -74.0475 307° West 113 130 9,000 -60 Descending Boston Center
07:43PM 43.4908 -74.0914 314° West 131 151 9,000  Level Boston Center
07:44PM 43.5069 -74.1347 297° West 136 157 9,000  Level Boston Center
07:45PM 43.5336 -74.1728 314° West 136 157 9,000  Level Boston Center
07:46PM 43.5686 -74.1994 331° Northwest 136 157 9,000  Level Boston Center
07:47PM 43.5992 -74.2347 320° Northwest 136 157 9,000  Level Boston Center
07:48PM 43.6300 -74.2672 323° Northwest 136 157 9,000  Level Boston Center
07:49PM 43.6628 -74.3028 322° Northwest 136 157 9,000  Level Boston Center
07:50PM 43.6956 -74.3411 320° Northwest 141 162 9,100  Climbing Boston Center
07:51PM 43.7281 -74.3794 320° Northwest 146 168 9,000 -60 Descending Boston Center
07:52PM 43.7631 -74.4150 324° Northwest 151 174 9,000  Level Boston Center
07:53PM 43.7958 -74.4506 322° Northwest 151 174 9,000  Level Boston Center
07:54PM 43.8264 -74.4892 318° Northwest 151 174 9,000  Level Boston Center
07:55PM 43.8611 -74.5247 324° Northwest 151 174 9,000  Level Boston Center
07:56PM 43.8856 -74.5517 322° Northwest 151 174 9,000  Level Boston Center
07:57PM 43.9244 -74.5992 319° Northwest 156 180 9,000  Level Boston Center
07:58PM 43.9569 -74.6319 324° Northwest 156 180 9,000  Level Boston Center
07:59PM 43.9939 -74.6708 323° Northwest 156 180 9,000  Level Boston Center
08:00PM 44.0244 -74.7067 320° Northwest 156 180 9,000  Level Boston Center
08:01PM 44.0569 -74.7425 322° Northwest 156 180 9,000  Level Boston Center
08:02PM 44.0917 -74.7758 325° Northwest 156 180 9,000  Level Boston Center
08:03PM 44.1267 -74.8061 328° Northwest 151 174 9,000  Level Boston Center
08:04PM 44.1633 -74.8394 327° Northwest 151 174 9,000  Level Boston Center
08:05PM 44.1961 -74.8697 326° Northwest 146 168 9,000  Level Boston Center
08:06PM 44.2308 -74.9000 328° Northwest 151 174 9,000  Level Boston Center
08:07PM 44.2656 -74.9361 323° Northwest 151 174 9,000 -480 Level Boston Center
08:08PM 44.3042 -74.9756 324° Northwest 151 174 8,100 -660 Descending Boston Center
08:09PM 44.3453 -75.0092 330° Northwest 161 185 7,700 -540 Descending Boston Center
08:10PM 44.3797 -75.0456 323° Northwest 161 185 7,100 -720 Descending Boston Center
08:11PM 44.4206 -75.0853 325° Northwest 166 191 6,300 -780 Descending Boston Center
08:12PM 44.4614 -75.1189 330° Northwest 166 191 5,600 -600 Descending Boston Center
08:13PM 44.4978 -75.1644 318° Northwest 171 197 5,100 -360 Descending Boston Center
08:14PM 44.5306 -75.1919 329° Northwest 171 197 4,900 -660 Descending Boston Center
08:15PM 44.5753 -75.2350 326° Northwest 166 191 3,800 -1,140 Descending Boston Center